PWSweather.com
Personal Weather Stations
Station Observations
WESTON01
WestonSuperMareGB BS22 8RT

WestonSuperMareGB BS22 8RT

Lat: 51.351508, Lon: -2.933373

Elevation: 15

Station Type: Fine Offset WH1080

http://www.westonweather.co.uk

High Low Average
Temperature 78.7°F25.9°C 61.3°F16.3°C 66.8°F19.3°C
Dew Point 55.6°F13.1°C 43.3°F6.3°C 50.1°F10.1°C
Winds 8.2 mph 13.2 kmh Calm Calm 3.0 mph S4.8 kmh S
Wind Gusts 13.1 mph21.1 kmh -- 6.0 mph9.7 kmh
Humidity 69% 41% 56%
Pressure 30.21 in1023.0 mb 30.12 in1020.0 mb -
Precipitation 0.00 in0.0 mm - -
Hour Temp Dew Point Humidity Winds Wind Gusts Pressure Precip Precip Rate Daily Precip Total
12:00 AM 62.2°F16.8°C 51.1°F10.6°C 67% 2.0 mph S3.2 kmh S 5.7 mph9.2 kmh 30.18 in1022.0 mb 0.00 in0.0 mm 0.00 in0.0 mm 0.00 in0.0 mm
12:05 AM 62.2°F16.8°C 51.1°F10.6°C 67% 1.0 mph S1.6 kmh S 2.7 mph4.3 kmh 30.18 in1022.0 mb 0.00 in0.0 mm 0.00 in0.0 mm 0.00 in0.0 mm
12:10 AM 62.0°F16.7°C 50.9°F10.5°C 67% 1.2 mph SSE1.9 kmh SSE 2.7 mph4.3 kmh 30.21 in1023.0 mb 0.00 in0.0 mm 0.00 in0.0 mm 0.00 in0.0 mm
12:15 AM 62.0°F16.7°C 50.9°F10.5°C 67% 0.9 mph SE1.4 kmh SE 3.0 mph4.8 kmh 30.21 in1023.0 mb 0.00 in0.0 mm 0.00 in0.0 mm 0.00 in0.0 mm
12:20 AM 62.0°F16.7°C 51.3°F10.7°C 68% 1.1 mph N1.8 kmh N 4.2 mph6.8 kmh 30.21 in1023.0 mb 0.00 in0.0 mm 0.00 in0.0 mm 0.00 in0.0 mm
12:25 AM 62.0°F16.7°C 51.3°F10.7°C 68% 2.3 mph N3.7 kmh N 5.1 mph8.2 kmh 30.21 in1023.0 mb 0.00 in0.0 mm 0.00 in0.0 mm 0.00 in0.0 mm
12:30 AM 62.0°F16.7°C 51.3°F10.7°C 68% 3.1 mph NNE5.0 kmh NNE 5.1 mph8.2 kmh 30.21 in1023.0 mb 0.00 in0.0 mm 0.00 in0.0 mm 0.00 in0.0 mm
12:35 AM 62.0°F16.7°C 51.3°F10.7°C 68% 2.5 mph ENE4.0 kmh ENE 5.1 mph8.2 kmh 30.21 in1023.0 mb 0.00 in0.0 mm 0.00 in0.0 mm 0.00 in0.0 mm
12:40 AM 62.0°F16.7°C 51.3°F10.7°C 68% 1.5 mph ENE2.4 kmh ENE 5.1 mph8.2 kmh 30.21 in1023.0 mb 0.00 in0.0 mm 0.00 in0.0 mm 0.00 in0.0 mm
12:45 AM 61.8°F16.6°C 51.1°F10.6°C 68% 0.9 mph NE1.4 kmh NE 3.9 mph6.3 kmh 30.21 in1023.0 mb 0.00 in0.0 mm 0.00 in0.0 mm 0.00 in0.0 mm
12:50 AM 61.8°F16.6°C 51.5°F10.8°C 69% 1.4 mph NE2.3 kmh NE 3.9 mph6.3 kmh 30.21 in1023.0 mb 0.00 in0.0 mm 0.00 in0.0 mm 0.00 in0.0 mm
12:55 AM 61.8°F16.6°C 51.5°F10.8°C 69% 1.7 mph ENE2.7 kmh ENE 4.5 mph7.2 kmh 30.18 in1022.0 mb 0.00 in0.0 mm 0.00 in0.0 mm 0.00 in0.0 mm
01:00 AM 61.8°F16.6°C 51.5°F10.8°C 69% 1.7 mph NE2.7 kmh NE 4.5 mph7.2 kmh 30.18 in1022.0 mb 0.00 in0.0 mm 0.00 in0.0 mm 0.00 in0.0 mm
01:05 AM 61.8°F16.6°C 51.5°F10.8°C 69% 1.6 mph NE2.6 kmh NE 3.6 mph5.8 kmh 30.18 in1022.0 mb 0.00 in0.0 mm 0.00 in0.0 mm 0.00 in0.0 mm
01:10 AM 61.8°F16.6°C 51.5°F10.8°C 69% 1.8 mph NE2.9 kmh NE 3.6 mph5.8 kmh 30.18 in1022.0 mb 0.00 in0.0 mm 0.00 in0.0 mm 0.00 in0.0 mm
01:15 AM 61.8°F16.6°C 51.5°F10.8°C 69% 1.2 mph NW1.9 kmh NW 4.2 mph6.8 kmh 30.18 in1022.0 mb 0.00 in0.0 mm 0.00 in0.0 mm 0.00 in0.0 mm
01:20 AM 61.8°F16.6°C 51.5°F10.8°C 69% 1.3 mph NW2.1 kmh NW 4.2 mph6.8 kmh 30.18 in1022.0 mb 0.00 in0.0 mm 0.00 in0.0 mm 0.00 in0.0 mm
01:25 AM 61.8°F16.6°C 51.5°F10.8°C 69% 1.9 mph NNE3.1 kmh NNE 4.2 mph6.8 kmh 30.18 in1022.0 mb 0.00 in0.0 mm 0.00 in0.0 mm 0.00 in0.0 mm
01:30 AM 61.8°F16.6°C 51.5°F10.8°C 69% 1.8 mph E2.9 kmh E 4.2 mph6.8 kmh 30.18 in1022.0 mb 0.00 in0.0 mm 0.00 in0.0 mm 0.00 in0.0 mm
01:35 AM 61.8°F16.6°C 51.5°F10.8°C 69% 1.5 mph SE2.4 kmh SE 6.2 mph10.0 kmh 30.18 in1022.0 mb 0.00 in0.0 mm 0.00 in0.0 mm 0.00 in0.0 mm
01:40 AM 61.8°F16.6°C 51.5°F10.8°C 69% 0.8 mph S1.3 kmh S 6.2 mph10.0 kmh 30.18 in1022.0 mb 0.00 in0.0 mm 0.00 in0.0 mm 0.00 in0.0 mm
01:50 AM 61.8°F16.6°C 51.5°F10.8°C 69% 1.8 mph E2.9 kmh E 3.3 mph5.3 kmh 30.18 in1022.0 mb 0.00 in0.0 mm 0.00 in0.0 mm 0.00 in0.0 mm
01:55 AM 61.8°F16.6°C 51.1°F10.6°C 68% 2.0 mph S3.2 kmh S 7.4 mph11.9 kmh 30.18 in1022.0 mb 0.00 in0.0 mm 0.00 in0.0 mm 0.00 in0.0 mm
02:00 AM 61.8°F16.6°C 51.1°F10.6°C 68% 1.7 mph SSE2.7 kmh SSE 7.4 mph11.9 kmh 30.18 in1022.0 mb 0.00 in0.0 mm 0.00 in0.0 mm 0.00 in0.0 mm
02:05 AM 61.8°F16.6°C 51.1°F10.6°C 68% 1.8 mph S2.9 kmh S 3.9 mph6.3 kmh 30.18 in1022.0 mb 0.00 in0.0 mm 0.00 in0.0 mm 0.00 in0.0 mm
02:10 AM 61.8°F16.6°C 51.1°F10.6°C 68% 2.2 mph S3.5 kmh S 3.9 mph6.3 kmh 30.18 in1022.0 mb 0.00 in0.0 mm 0.00 in0.0 mm 0.00 in0.0 mm
02:15 AM 61.8°F16.6°C 50.7°F10.4°C 67% 2.7 mph ESE4.3 kmh ESE 5.4 mph8.7 kmh 30.18 in1022.0 mb 0.00 in0.0 mm 0.00 in0.0 mm 0.00 in0.0 mm
02:20 AM 62.0°F16.7°C 50.9°F10.5°C 67% 3.1 mph E5.0 kmh E 5.4 mph8.7 kmh 30.18 in1022.0 mb 0.00 in0.0 mm 0.00 in0.0 mm 0.00 in0.0 mm
02:25 AM 62.0°F16.7°C 50.9°F10.5°C 67% 3.6 mph SE5.8 kmh SE 5.4 mph8.7 kmh 30.18 in1022.0 mb 0.00 in0.0 mm 0.00 in0.0 mm 0.00 in0.0 mm
02:30 AM 62.0°F16.7°C 50.9°F10.5°C 67% 3.5 mph SE5.6 kmh SE 5.4 mph8.7 kmh 30.18 in1022.0 mb 0.00 in0.0 mm 0.00 in0.0 mm 0.00 in0.0 mm
02:36 AM 62.0°F16.7°C 50.9°F10.5°C 67% 3.6 mph SE5.8 kmh SE 7.7 mph12.4 kmh 30.18 in1022.0 mb 0.00 in0.0 mm 0.00 in0.0 mm 0.00 in0.0 mm
02:40 AM 62.0°F16.7°C 50.9°F10.5°C 67% 3.1 mph S5.0 kmh S 7.7 mph12.4 kmh 30.18 in1022.0 mb 0.00 in0.0 mm 0.00 in0.0 mm 0.00 in0.0 mm
02:45 AM 62.0°F16.7°C 50.5°F10.3°C 66% 2.7 mph SW4.3 kmh SW 6.5 mph10.5 kmh 30.18 in1022.0 mb 0.00 in0.0 mm 0.00 in0.0 mm 0.00 in0.0 mm
02:50 AM 61.8°F16.6°C 50.3°F10.2°C 66% 2.3 mph SSE3.7 kmh SSE 6.5 mph10.5 kmh 30.18 in1022.0 mb 0.00 in0.0 mm 0.00 in0.0 mm 0.00 in0.0 mm
02:55 AM 61.8°F16.6°C 50.3°F10.2°C 66% 1.9 mph SSE3.1 kmh SSE 5.7 mph9.2 kmh 30.18 in1022.0 mb 0.00 in0.0 mm 0.00 in0.0 mm 0.00 in0.0 mm
03:00 AM 61.8°F16.6°C 50.3°F10.2°C 66% 2.0 mph SE3.2 kmh SE 5.7 mph9.2 kmh 30.18 in1022.0 mb 0.00 in0.0 mm 0.00 in0.0 mm 0.00 in0.0 mm
03:05 AM 61.8°F16.6°C 50.3°F10.2°C 66% 2.2 mph SE3.5 kmh SE 5.7 mph9.2 kmh 30.18 in1022.0 mb 0.00 in0.0 mm 0.00 in0.0 mm 0.00 in0.0 mm
03:10 AM 61.8°F16.6°C 50.3°F10.2°C 66% 2.9 mph SE4.7 kmh SE 7.1 mph11.4 kmh 30.18 in1022.0 mb 0.00 in0.0 mm 0.00 in0.0 mm 0.00 in0.0 mm
03:15 AM 61.8°F16.6°C 50.3°F10.2°C 66% 3.0 mph SE4.8 kmh SE 7.1 mph11.4 kmh 30.18 in1022.0 mb 0.00 in0.0 mm 0.00 in0.0 mm 0.00 in0.0 mm
03:20 AM 61.8°F16.6°C 50.3°F10.2°C 66% 3.5 mph SE5.6 kmh SE 6.2 mph10.0 kmh 30.18 in1022.0 mb 0.00 in0.0 mm 0.00 in0.0 mm 0.00 in0.0 mm
03:30 AM 61.8°F16.6°C 50.3°F10.2°C 66% 2.0 mph SE3.2 kmh SE 3.9 mph6.3 kmh 30.18 in1022.0 mb 0.00 in0.0 mm 0.00 in0.0 mm 0.00 in0.0 mm
03:35 AM 61.6°F16.4°C 50.1°F10.1°C 66% 2.4 mph SE3.9 kmh SE 4.8 mph7.7 kmh 30.18 in1022.0 mb 0.00 in0.0 mm 0.00 in0.0 mm 0.00 in0.0 mm
03:40 AM 61.6°F16.4°C 50.1°F10.1°C 66% 3.0 mph SE4.8 kmh SE 4.8 mph7.7 kmh 30.15 in1021.0 mb 0.00 in0.0 mm 0.00 in0.0 mm 0.00 in0.0 mm
03:45 AM 61.6°F16.4°C 49.7°F9.8°C 65% 3.6 mph SSE5.8 kmh SSE 6.5 mph10.5 kmh 30.15 in1021.0 mb 0.00 in0.0 mm 0.00 in0.0 mm 0.00 in0.0 mm
03:55 AM 61.6°F16.4°C 49.7°F9.8°C 65% 4.5 mph S7.2 kmh S 7.4 mph11.9 kmh 30.15 in1021.0 mb 0.00 in0.0 mm 0.00 in0.0 mm 0.00 in0.0 mm
04:00 AM 61.6°F16.4°C 49.7°F9.8°C 65% 4.1 mph S6.6 kmh S 7.4 mph11.9 kmh 30.15 in1021.0 mb 0.00 in0.0 mm 0.00 in0.0 mm 0.00 in0.0 mm
04:05 AM 61.6°F16.4°C 49.7°F9.8°C 65% 2.2 mph SSE3.5 kmh SSE 5.4 mph8.7 kmh 30.15 in1021.0 mb 0.00 in0.0 mm 0.00 in0.0 mm 0.00 in0.0 mm
04:10 AM 61.4°F16.3°C 49.6°F9.8°C 65% 2.0 mph S3.2 kmh S 5.4 mph8.7 kmh 30.15 in1021.0 mb 0.00 in0.0 mm 0.00 in0.0 mm 0.00 in0.0 mm
04:15 AM 61.4°F16.3°C 49.6°F9.8°C 65% 2.3 mph SSW3.7 kmh SSW 4.5 mph7.2 kmh 30.15 in1021.0 mb 0.00 in0.0 mm 0.00 in0.0 mm 0.00 in0.0 mm
04:20 AM 61.4°F16.3°C 49.6°F9.8°C 65% 1.9 mph S3.1 kmh S 4.5 mph7.2 kmh 30.15 in1021.0 mb 0.00 in0.0 mm 0.00 in0.0 mm 0.00 in0.0 mm
04:25 AM 61.4°F16.3°C 49.6°F9.8°C 65% 3.0 mph SE4.8 kmh SE 5.4 mph8.7 kmh 30.15 in1021.0 mb 0.00 in0.0 mm 0.00 in0.0 mm 0.00 in0.0 mm
04:35 AM 61.4°F16.3°C 49.6°F9.8°C 65% 2.7 mph SSE4.3 kmh SSE 4.0 mph6.4 kmh 30.15 in1021.0 mb 0.00 in0.0 mm 0.00 in0.0 mm 0.00 in0.0 mm
04:40 AM 61.4°F16.3°C 49.6°F9.8°C 65% 2.3 mph SSE3.7 kmh SSE 5.7 mph9.2 kmh 30.15 in1021.0 mb 0.00 in0.0 mm 0.00 in0.0 mm 0.00 in0.0 mm
04:45 AM 61.4°F16.3°C 49.6°F9.8°C 65% 2.2 mph SE3.5 kmh SE 5.7 mph9.2 kmh 30.15 in1021.0 mb 0.00 in0.0 mm 0.00 in0.0 mm 0.00 in0.0 mm
04:50 AM 61.4°F16.3°C 50.0°F10.0°C 66% 2.2 mph SE3.5 kmh SE 4.8 mph7.7 kmh 30.15 in1021.0 mb 0.00 in0.0 mm 0.00 in0.0 mm 0.00 in0.0 mm
04:55 AM 61.4°F16.3°C 50.0°F10.0°C 66% 2.2 mph SE3.5 kmh SE 4.8 mph7.7 kmh 30.15 in1021.0 mb 0.00 in0.0 mm 0.00 in0.0 mm 0.00 in0.0 mm
05:00 AM 61.4°F16.3°C 50.0°F10.0°C 66% 2.8 mph ESE4.5 kmh ESE 5.1 mph8.2 kmh 30.15 in1021.0 mb 0.00 in0.0 mm 0.00 in0.0 mm 0.00 in0.0 mm
05:05 AM 61.4°F16.3°C 50.0°F10.0°C 66% 3.0 mph ESE4.8 kmh ESE 5.1 mph8.2 kmh 30.15 in1021.0 mb 0.00 in0.0 mm 0.00 in0.0 mm 0.00 in0.0 mm
05:10 AM 61.4°F16.3°C 50.0°F10.0°C 66% 1.7 mph E2.7 kmh E 5.1 mph8.2 kmh 30.15 in1021.0 mb 0.00 in0.0 mm 0.00 in0.0 mm 0.00 in0.0 mm
05:15 AM 61.3°F16.3°C 50.2°F10.1°C 67% 2.0 mph SE3.2 kmh SE 4.2 mph6.8 kmh 30.15 in1021.0 mb 0.00 in0.0 mm 0.00 in0.0 mm 0.00 in0.0 mm
05:20 AM 61.3°F16.3°C 50.2°F10.1°C 67% 2.9 mph E4.7 kmh E 4.2 mph6.8 kmh 30.15 in1021.0 mb 0.00 in0.0 mm 0.00 in0.0 mm 0.00 in0.0 mm
05:25 AM 61.3°F16.3°C 50.2°F10.1°C 67% 2.3 mph NE3.7 kmh NE 4.2 mph6.8 kmh 30.15 in1021.0 mb 0.00 in0.0 mm 0.00 in0.0 mm 0.00 in0.0 mm
05:30 AM 61.3°F16.3°C 50.2°F10.1°C 67% 2.9 mph NE4.7 kmh NE 5.7 mph9.2 kmh 30.15 in1021.0 mb 0.00 in0.0 mm 0.00 in0.0 mm 0.00 in0.0 mm
05:35 AM 61.3°F16.3°C 50.2°F10.1°C 67% 2.7 mph ENE4.3 kmh ENE 5.7 mph9.2 kmh 30.15 in1021.0 mb 0.00 in0.0 mm 0.00 in0.0 mm 0.00 in0.0 mm
05:40 AM 61.3°F16.3°C 50.6°F10.3°C 68% 2.3 mph ENE3.7 kmh ENE 3.9 mph6.3 kmh 30.15 in1021.0 mb 0.00 in0.0 mm 0.00 in0.0 mm 0.00 in0.0 mm
05:45 AM 61.3°F16.3°C 50.6°F10.3°C 68% 2.3 mph ENE3.7 kmh ENE 5.7 mph9.2 kmh 30.15 in1021.0 mb 0.00 in0.0 mm 0.00 in0.0 mm 0.00 in0.0 mm
05:50 AM 61.3°F16.3°C 50.6°F10.3°C 68% 2.4 mph ENE3.9 kmh ENE 5.7 mph9.2 kmh 30.15 in1021.0 mb 0.00 in0.0 mm 0.00 in0.0 mm 0.00 in0.0 mm
05:55 AM 61.3°F16.3°C 50.6°F10.3°C 68% 3.6 mph ENE5.8 kmh ENE 5.7 mph9.2 kmh 30.15 in1021.0 mb 0.00 in0.0 mm 0.00 in0.0 mm 0.00 in0.0 mm
06:00 AM 61.3°F16.3°C 51.0°F10.6°C 69% 4.4 mph E7.1 kmh E 6.2 mph10.0 kmh 30.15 in1021.0 mb 0.00 in0.0 mm 0.00 in0.0 mm 0.00 in0.0 mm
06:05 AM 61.4°F16.3°C 50.8°F10.4°C 68% 4.2 mph E6.8 kmh E 6.2 mph10.0 kmh 30.15 in1021.0 mb 0.00 in0.0 mm 0.00 in0.0 mm 0.00 in0.0 mm
06:10 AM 61.4°F16.3°C 51.2°F10.7°C 69% 4.1 mph E6.6 kmh E 5.7 mph9.2 kmh 30.15 in1021.0 mb 0.00 in0.0 mm 0.00 in0.0 mm 0.00 in0.0 mm
06:15 AM 61.4°F16.3°C 51.2°F10.7°C 69% 4.2 mph E6.8 kmh E 5.7 mph9.2 kmh 30.15 in1021.0 mb 0.00 in0.0 mm 0.00 in0.0 mm 0.00 in0.0 mm
06:20 AM 61.6°F16.4°C 51.3°F10.7°C 69% 4.0 mph E6.4 kmh E 5.7 mph9.2 kmh 30.15 in1021.0 mb 0.00 in0.0 mm 0.00 in0.0 mm 0.00 in0.0 mm
06:25 AM 61.6°F16.4°C 51.3°F10.7°C 69% 3.4 mph ENE5.5 kmh ENE 6.2 mph10.0 kmh 30.15 in1021.0 mb 0.00 in0.0 mm 0.00 in0.0 mm 0.00 in0.0 mm
06:30 AM 61.6°F16.4°C 51.3°F10.7°C 69% 2.7 mph E4.3 kmh E 6.2 mph10.0 kmh 30.15 in1021.0 mb 0.00 in0.0 mm 0.00 in0.0 mm 0.00 in0.0 mm
06:35 AM 61.8°F16.6°C 51.5°F10.8°C 69% 2.5 mph E4.0 kmh E 6.2 mph10.0 kmh 30.15 in1021.0 mb 0.00 in0.0 mm 0.00 in0.0 mm 0.00 in0.0 mm
06:40 AM 62.0°F16.7°C 51.7°F10.9°C 69% 2.2 mph E3.5 kmh E 3.9 mph6.3 kmh 30.15 in1021.0 mb 0.00 in0.0 mm 0.00 in0.0 mm 0.00 in0.0 mm
06:45 AM 62.0°F16.7°C 51.7°F10.9°C 69% 2.0 mph ESE3.2 kmh ESE 3.9 mph6.3 kmh 30.15 in1021.0 mb 0.00 in0.0 mm 0.00 in0.0 mm 0.00 in0.0 mm
06:50 AM 62.3°F16.8°C 52.0°F11.1°C 69% 1.8 mph SE2.9 kmh SE 4.5 mph7.2 kmh 30.15 in1021.0 mb 0.00 in0.0 mm 0.00 in0.0 mm 0.00 in0.0 mm
06:55 AM 62.3°F16.8°C 52.0°F11.1°C 69% 1.8 mph S2.9 kmh S 5.1 mph8.2 kmh 30.18 in1022.0 mb 0.00 in0.0 mm 0.00 in0.0 mm 0.00 in0.0 mm
07:00 AM 62.5°F16.9°C 52.2°F11.2°C 69% 2.1 mph SE3.4 kmh SE 5.4 mph8.7 kmh 30.18 in1022.0 mb 0.00 in0.0 mm 0.00 in0.0 mm 0.00 in0.0 mm
07:05 AM 62.7°F17.1°C 52.4°F11.3°C 69% 2.0 mph E3.2 kmh E 5.4 mph8.7 kmh 30.18 in1022.0 mb 0.00 in0.0 mm 0.00 in0.0 mm 0.00 in0.0 mm
07:10 AM 62.9°F17.2°C 52.5°F11.4°C 69% 1.6 mph E2.6 kmh E 3.0 mph4.8 kmh 30.18 in1022.0 mb 0.00 in0.0 mm 0.00 in0.0 mm 0.00 in0.0 mm
07:15 AM 63.0°F17.2°C 52.7°F11.5°C 69% 1.8 mph SE2.9 kmh SE 2.7 mph4.3 kmh 30.18 in1022.0 mb 0.00 in0.0 mm 0.00 in0.0 mm 0.00 in0.0 mm
07:20 AM 63.0°F17.2°C 52.7°F11.5°C 69% 1.4 mph SSE2.3 kmh SSE 2.7 mph4.3 kmh 30.18 in1022.0 mb 0.00 in0.0 mm 0.00 in0.0 mm 0.00 in0.0 mm
07:25 AM 63.2°F17.3°C 52.9°F11.6°C 69% 1.6 mph SE2.6 kmh SE 5.4 mph8.7 kmh 30.18 in1022.0 mb 0.00 in0.0 mm 0.00 in0.0 mm 0.00 in0.0 mm
07:30 AM 63.4°F17.4°C 52.7°F11.5°C 68% 2.5 mph SE4.0 kmh SE 5.4 mph8.7 kmh 30.18 in1022.0 mb 0.00 in0.0 mm 0.00 in0.0 mm 0.00 in0.0 mm
07:35 AM 63.6°F17.6°C 52.8°F11.6°C 68% 3.6 mph E5.8 kmh E 5.1 mph8.2 kmh 30.18 in1022.0 mb 0.00 in0.0 mm 0.00 in0.0 mm 0.00 in0.0 mm
07:40 AM 63.8°F17.7°C 53.0°F11.7°C 68% 3.5 mph E5.6 kmh E 6.2 mph10.0 kmh 30.18 in1022.0 mb 0.00 in0.0 mm 0.00 in0.0 mm 0.00 in0.0 mm
07:50 AM 64.0°F17.8°C 53.2°F11.8°C 68% 3.4 mph SE5.5 kmh SE 5.7 mph9.2 kmh 30.18 in1022.0 mb 0.00 in0.0 mm 0.00 in0.0 mm 0.00 in0.0 mm
07:55 AM 64.1°F17.8°C 53.3°F11.8°C 68% 3.6 mph ESE5.8 kmh ESE 5.7 mph9.2 kmh 30.18 in1022.0 mb 0.00 in0.0 mm 0.00 in0.0 mm 0.00 in0.0 mm
08:00 AM 64.3°F17.9°C 53.5°F11.9°C 68% 3.0 mph ESE4.8 kmh ESE 5.1 mph8.2 kmh 30.18 in1022.0 mb 0.00 in0.0 mm 0.00 in0.0 mm 0.00 in0.0 mm
08:05 AM 64.3°F17.9°C 53.5°F11.9°C 68% 2.8 mph ESE4.5 kmh ESE 5.1 mph8.2 kmh 30.18 in1022.0 mb 0.00 in0.0 mm 0.00 in0.0 mm 0.00 in0.0 mm
08:10 AM 64.5°F18.1°C 53.7°F12.1°C 68% 2.7 mph SE4.3 kmh SE 4.5 mph7.2 kmh 30.18 in1022.0 mb 0.00 in0.0 mm 0.00 in0.0 mm 0.00 in0.0 mm
08:20 AM 64.5°F18.1°C 53.7°F12.1°C 68% 3.5 mph SSE5.6 kmh SSE 7.7 mph12.4 kmh 30.18 in1022.0 mb 0.00 in0.0 mm 0.00 in0.0 mm 0.00 in0.0 mm
08:25 AM 64.7°F18.2°C 53.9°F12.2°C 68% 3.6 mph SE5.8 kmh SE 5.4 mph8.7 kmh 30.18 in1022.0 mb 0.00 in0.0 mm 0.00 in0.0 mm 0.00 in0.0 mm
08:30 AM 64.7°F18.2°C 53.9°F12.2°C 68% 3.7 mph SE6.0 kmh SE 5.4 mph8.7 kmh 30.18 in1022.0 mb 0.00 in0.0 mm 0.00 in0.0 mm 0.00 in0.0 mm
08:35 AM 64.8°F18.2°C 54.0°F12.2°C 68% 2.7 mph SE4.3 kmh SE 5.1 mph8.2 kmh 30.18 in1022.0 mb 0.00 in0.0 mm 0.00 in0.0 mm 0.00 in0.0 mm
08:40 AM 65.0°F18.3°C 53.8°F12.1°C 67% 2.1 mph SE3.4 kmh SE 5.1 mph8.2 kmh 30.18 in1022.0 mb 0.00 in0.0 mm 0.00 in0.0 mm 0.00 in0.0 mm
08:45 AM 65.2°F18.4°C 54.0°F12.2°C 67% 3.1 mph SE5.0 kmh SE 4.5 mph7.2 kmh 30.18 in1022.0 mb 0.00 in0.0 mm 0.00 in0.0 mm 0.00 in0.0 mm
08:50 AM 65.2°F18.4°C 54.0°F12.2°C 67% 3.7 mph SE6.0 kmh SE 5.7 mph9.2 kmh 30.18 in1022.0 mb 0.00 in0.0 mm 0.00 in0.0 mm 0.00 in0.0 mm
09:00 AM 65.6°F18.7°C 54.3°F12.4°C 67% 3.5 mph SSE5.6 kmh SSE 5.4 mph8.7 kmh 30.18 in1022.0 mb 0.00 in0.0 mm 0.00 in0.0 mm 0.00 in0.0 mm
09:05 AM 65.8°F18.8°C 54.5°F12.5°C 67% 3.7 mph S6.0 kmh S 5.4 mph8.7 kmh 30.18 in1022.0 mb 0.00 in0.0 mm 0.00 in0.0 mm 0.00 in0.0 mm
09:10 AM 65.9°F18.8°C 54.2°F12.3°C 66% 3.8 mph S6.1 kmh S 5.4 mph8.7 kmh 30.18 in1022.0 mb 0.00 in0.0 mm 0.00 in0.0 mm 0.00 in0.0 mm
09:15 AM 66.1°F18.9°C 54.4°F12.4°C 66% 4.1 mph S6.6 kmh S 5.7 mph9.2 kmh 30.18 in1022.0 mb 0.00 in0.0 mm 0.00 in0.0 mm 0.00 in0.0 mm
09:20 AM 66.3°F19.1°C 54.6°F12.6°C 66% 3.7 mph SSW6.0 kmh SSW 5.7 mph9.2 kmh 30.18 in1022.0 mb 0.00 in0.0 mm 0.00 in0.0 mm 0.00 in0.0 mm
09:25 AM 66.3°F19.1°C 54.2°F12.3°C 65% 4.3 mph S6.9 kmh S 8.3 mph13.4 kmh 30.18 in1022.0 mb 0.00 in0.0 mm 0.00 in0.0 mm 0.00 in0.0 mm
09:30 AM 66.3°F19.1°C 54.2°F12.3°C 65% 4.0 mph S6.4 kmh S 8.3 mph13.4 kmh 30.18 in1022.0 mb 0.00 in0.0 mm 0.00 in0.0 mm 0.00 in0.0 mm
09:35 AM 66.3°F19.1°C 54.2°F12.3°C 65% 3.6 mph S5.8 kmh S 6.2 mph10.0 kmh 30.18 in1022.0 mb 0.00 in0.0 mm 0.00 in0.0 mm 0.00 in0.0 mm
09:40 AM 66.5°F19.2°C 54.3°F12.4°C 65% 4.4 mph S7.1 kmh S 7.7 mph12.4 kmh 30.18 in1022.0 mb 0.00 in0.0 mm 0.00 in0.0 mm 0.00 in0.0 mm
09:45 AM 66.5°F19.2°C 54.3°F12.4°C 65% 4.7 mph S7.6 kmh S 7.7 mph12.4 kmh 30.18 in1022.0 mb 0.00 in0.0 mm 0.00 in0.0 mm 0.00 in0.0 mm
09:50 AM 66.7°F19.3°C 54.5°F12.5°C 65% 3.8 mph S6.1 kmh S 7.7 mph12.4 kmh 30.18 in1022.0 mb 0.00 in0.0 mm 0.00 in0.0 mm 0.00 in0.0 mm
09:55 AM 66.7°F19.3°C 54.5°F12.5°C 65% 3.8 mph S6.1 kmh S 7.7 mph12.4 kmh 30.18 in1022.0 mb 0.00 in0.0 mm 0.00 in0.0 mm 0.00 in0.0 mm
10:00 AM 66.7°F19.3°C 54.5°F12.5°C 65% 4.9 mph S7.9 kmh S 8.0 mph12.9 kmh 30.18 in1022.0 mb 0.00 in0.0 mm 0.00 in0.0 mm 0.00 in0.0 mm
10:05 AM 67.0°F19.4°C 54.4°F12.4°C 64% 5.2 mph S8.4 kmh S 8.0 mph12.9 kmh 30.18 in1022.0 mb 0.00 in0.0 mm 0.00 in0.0 mm 0.00 in0.0 mm
10:10 AM 67.0°F19.4°C 54.4°F12.4°C 64% 5.3 mph SSE8.5 kmh SSE 8.3 mph13.4 kmh 30.18 in1022.0 mb 0.00 in0.0 mm 0.00 in0.0 mm 0.00 in0.0 mm
10:15 AM 67.0°F19.4°C 54.4°F12.4°C 64% 5.5 mph SSE8.9 kmh SSE 8.3 mph13.4 kmh 30.18 in1022.0 mb 0.00 in0.0 mm 0.00 in0.0 mm 0.00 in0.0 mm
10:20 AM 67.2°F19.6°C 54.6°F12.6°C 64% 5.0 mph SSE8.0 kmh SSE 7.7 mph12.4 kmh 30.18 in1022.0 mb 0.00 in0.0 mm 0.00 in0.0 mm 0.00 in0.0 mm
10:25 AM 67.4°F19.7°C 54.8°F12.7°C 64% 4.5 mph SSE7.2 kmh SSE 6.5 mph10.5 kmh 30.18 in1022.0 mb 0.00 in0.0 mm 0.00 in0.0 mm 0.00 in0.0 mm
10:30 AM 67.7°F19.8°C 55.1°F12.8°C 64% 4.8 mph SSE7.7 kmh SSE 9.2 mph14.8 kmh 30.18 in1022.0 mb 0.00 in0.0 mm 0.00 in0.0 mm 0.00 in0.0 mm
10:35 AM 67.9°F19.9°C 54.8°F12.7°C 63% 5.8 mph SE9.3 kmh SE 9.2 mph14.8 kmh 30.18 in1022.0 mb 0.00 in0.0 mm 0.00 in0.0 mm 0.00 in0.0 mm
10:40 AM 68.3°F20.2°C 55.2°F12.9°C 63% 5.5 mph SSE8.9 kmh SSE 8.6 mph13.8 kmh 30.18 in1022.0 mb 0.00 in0.0 mm 0.00 in0.0 mm 0.00 in0.0 mm
10:45 AM 68.6°F20.3°C 55.1°F12.8°C 62% 4.3 mph SSE6.9 kmh SSE 8.6 mph13.8 kmh 30.18 in1022.0 mb 0.00 in0.0 mm 0.00 in0.0 mm 0.00 in0.0 mm
10:50 AM 68.6°F20.3°C 55.1°F12.8°C 62% 4.4 mph SE7.1 kmh SE 6.2 mph10.0 kmh 30.18 in1022.0 mb 0.00 in0.0 mm 0.00 in0.0 mm 0.00 in0.0 mm
10:55 AM 68.8°F20.4°C 54.8°F12.7°C 61% 4.8 mph SE7.7 kmh SE 7.1 mph11.4 kmh 30.18 in1022.0 mb 0.00 in0.0 mm 0.00 in0.0 mm 0.00 in0.0 mm
11:00 AM 69.2°F20.7°C 55.1°F12.8°C 61% 5.2 mph SE8.4 kmh SE 9.8 mph15.8 kmh 30.18 in1022.0 mb 0.00 in0.0 mm 0.00 in0.0 mm 0.00 in0.0 mm
11:05 AM 69.2°F20.7°C 54.7°F12.6°C 60% 5.5 mph SSE8.9 kmh SSE 9.8 mph15.8 kmh 30.18 in1022.0 mb 0.00 in0.0 mm 0.00 in0.0 mm 0.00 in0.0 mm
11:10 AM 69.5°F20.8°C 54.6°F12.6°C 59% 4.9 mph S7.9 kmh S 7.1 mph11.4 kmh 30.18 in1022.0 mb 0.00 in0.0 mm 0.00 in0.0 mm 0.00 in0.0 mm
11:15 AM 69.7°F20.9°C 54.7°F12.6°C 59% 4.7 mph S7.6 kmh S 8.0 mph12.9 kmh 30.18 in1022.0 mb 0.00 in0.0 mm 0.00 in0.0 mm 0.00 in0.0 mm
11:20 AM 70.3°F21.3°C 55.2°F12.9°C 59% 4.8 mph SSE7.7 kmh SSE 8.0 mph12.9 kmh 30.18 in1022.0 mb 0.00 in0.0 mm 0.00 in0.0 mm 0.00 in0.0 mm
11:25 AM 70.4°F21.3°C 54.9°F12.7°C 58% 4.2 mph SSE6.8 kmh SSE 7.4 mph11.9 kmh 30.18 in1022.0 mb 0.00 in0.0 mm 0.00 in0.0 mm 0.00 in0.0 mm
11:30 AM 71.0°F21.7°C 55.0°F12.8°C 57% 4.9 mph SE7.9 kmh SE 7.4 mph11.9 kmh 30.18 in1022.0 mb 0.00 in0.0 mm 0.00 in0.0 mm 0.00 in0.0 mm
11:35 AM 71.2°F21.8°C 55.1°F12.8°C 57% 4.9 mph SE7.9 kmh SE 7.1 mph11.4 kmh 30.18 in1022.0 mb 0.00 in0.0 mm 0.00 in0.0 mm 0.00 in0.0 mm
11:40 AM 71.5°F21.9°C 55.5°F13.1°C 57% 5.1 mph SE8.2 kmh SE 7.1 mph11.4 kmh 30.15 in1021.0 mb 0.00 in0.0 mm 0.00 in0.0 mm 0.00 in0.0 mm
11:45 AM 71.5°F21.9°C 55.0°F12.8°C 56% 4.8 mph S7.7 kmh S 8.6 mph13.8 kmh 30.15 in1021.0 mb 0.00 in0.0 mm 0.00 in0.0 mm 0.00 in0.0 mm
11:50 AM 71.3°F21.8°C 54.8°F12.7°C 56% 5.3 mph S8.5 kmh S 8.6 mph13.8 kmh 30.15 in1021.0 mb 0.00 in0.0 mm 0.00 in0.0 mm 0.00 in0.0 mm
11:55 AM 71.3°F21.8°C 54.8°F12.7°C 56% 5.4 mph S8.7 kmh S 8.0 mph12.9 kmh 30.15 in1021.0 mb 0.00 in0.0 mm 0.00 in0.0 mm 0.00 in0.0 mm
12:00 PM 71.7°F22.1°C 54.7°F12.6°C 55% 6.5 mph S10.5 kmh S 10.4 mph16.7 kmh 30.15 in1021.0 mb 0.00 in0.0 mm 0.00 in0.0 mm 0.00 in0.0 mm
12:05 PM 71.5°F21.9°C 54.5°F12.5°C 55% 6.5 mph S10.5 kmh S 10.4 mph16.7 kmh 30.15 in1021.0 mb 0.00 in0.0 mm 0.00 in0.0 mm 0.00 in0.0 mm
12:10 PM 71.5°F21.9°C 54.5°F12.5°C 55% 5.4 mph S8.7 kmh S 9.8 mph15.8 kmh 30.15 in1021.0 mb 0.00 in0.0 mm 0.00 in0.0 mm 0.00 in0.0 mm
12:15 PM 71.7°F22.1°C 54.7°F12.6°C 55% 5.9 mph SSE9.5 kmh SSE 8.3 mph13.4 kmh 30.15 in1021.0 mb 0.00 in0.0 mm 0.00 in0.0 mm 0.00 in0.0 mm
12:20 PM 72.1°F22.3°C 55.0°F12.8°C 55% 6.2 mph S10.0 kmh S 8.6 mph13.8 kmh 30.15 in1021.0 mb 0.00 in0.0 mm 0.00 in0.0 mm 0.00 in0.0 mm
12:25 PM 72.4°F22.4°C 54.8°F12.7°C 54% 6.0 mph S9.7 kmh S 10.1 mph16.3 kmh 30.15 in1021.0 mb 0.00 in0.0 mm 0.00 in0.0 mm 0.00 in0.0 mm
12:30 PM 72.9°F22.7°C 55.3°F12.9°C 54% 4.8 mph S7.7 kmh S 10.1 mph16.3 kmh 30.15 in1021.0 mb 0.00 in0.0 mm 0.00 in0.0 mm 0.00 in0.0 mm
12:40 PM 73.1°F22.8°C 54.5°F12.5°C 52% 6.6 mph S10.6 kmh S 8.0 mph12.9 kmh 30.15 in1021.0 mb 0.00 in0.0 mm 0.00 in0.0 mm 0.00 in0.0 mm
12:45 PM 73.5°F23.1°C 54.8°F12.7°C 52% 5.0 mph S8.0 kmh S 8.0 mph12.9 kmh 30.15 in1021.0 mb 0.00 in0.0 mm 0.00 in0.0 mm 0.00 in0.0 mm
12:55 PM 74.4°F23.6°C 55.1°F12.8°C 51% 4.1 mph SSW6.6 kmh SSW 7.4 mph11.9 kmh 30.15 in1021.0 mb 0.00 in0.0 mm 0.00 in0.0 mm 0.00 in0.0 mm
01:00 PM 74.4°F23.6°C 55.1°F12.8°C 51% 4.9 mph S7.9 kmh S 10.1 mph16.3 kmh 30.15 in1021.0 mb 0.00 in0.0 mm 0.00 in0.0 mm 0.00 in0.0 mm
01:05 PM 74.8°F23.8°C 54.9°F12.7°C 50% 4.1 mph S6.6 kmh S 10.1 mph16.3 kmh 30.15 in1021.0 mb 0.00 in0.0 mm 0.00 in0.0 mm 0.00 in0.0 mm
01:10 PM 74.9°F23.8°C 55.0°F12.8°C 50% 3.8 mph SE6.1 kmh SE 6.2 mph10.0 kmh 30.15 in1021.0 mb 0.00 in0.0 mm 0.00 in0.0 mm 0.00 in0.0 mm
01:15 PM 75.5°F24.2°C 55.5°F13.1°C 50% 2.8 mph SE4.5 kmh SE 6.2 mph10.0 kmh 30.15 in1021.0 mb 0.00 in0.0 mm 0.00 in0.0 mm 0.00 in0.0 mm
01:20 PM 76.0°F24.4°C 55.5°F13.1°C 49% 2.3 mph SE3.7 kmh SE 4.5 mph7.2 kmh 30.15 in1021.0 mb 0.00 in0.0 mm 0.00 in0.0 mm 0.00 in0.0 mm
01:25 PM 76.2°F24.6°C 55.6°F13.1°C 49% 3.2 mph SSE5.1 kmh SSE 4.5 mph7.2 kmh 30.15 in1021.0 mb 0.00 in0.0 mm 0.00 in0.0 mm 0.00 in0.0 mm
01:30 PM 76.2°F24.6°C 55.1°F12.8°C 48% 3.7 mph S6.0 kmh S 4.2 mph6.8 kmh 30.15 in1021.0 mb 0.00 in0.0 mm 0.00 in0.0 mm 0.00 in0.0 mm
01:35 PM 76.6°F24.8°C 55.4°F13.0°C 48% 3.8 mph S6.1 kmh S 8.6 mph13.8 kmh 30.15 in1021.0 mb 0.00 in0.0 mm 0.00 in0.0 mm 0.00 in0.0 mm
01:40 PM 76.4°F24.7°C 55.2°F12.9°C 48% 4.6 mph S7.4 kmh S 8.6 mph13.8 kmh 30.15 in1021.0 mb 0.00 in0.0 mm 0.00 in0.0 mm 0.00 in0.0 mm
01:45 PM 76.2°F24.6°C 53.9°F12.2°C 46% 6.7 mph SW10.8 kmh SW 8.6 mph13.8 kmh 30.15 in1021.0 mb 0.00 in0.0 mm 0.00 in0.0 mm 0.00 in0.0 mm
01:50 PM 76.4°F24.7°C 54.6°F12.6°C 47% 6.1 mph SW9.8 kmh SW 8.6 mph13.8 kmh 30.15 in1021.0 mb 0.00 in0.0 mm 0.00 in0.0 mm 0.00 in0.0 mm
01:55 PM 76.7°F24.8°C 54.4°F12.4°C 46% 5.5 mph SSW8.9 kmh SSW 8.3 mph13.4 kmh 30.15 in1021.0 mb 0.00 in0.0 mm 0.00 in0.0 mm 0.00 in0.0 mm
02:00 PM 76.9°F24.9°C 53.9°F12.2°C 45% 6.7 mph SSW10.8 kmh SSW 9.5 mph15.3 kmh 30.15 in1021.0 mb 0.00 in0.0 mm 0.00 in0.0 mm 0.00 in0.0 mm
02:05 PM 76.9°F24.9°C 53.9°F12.2°C 45% 8.2 mph SSW13.2 kmh SSW 11.3 mph18.2 kmh 30.15 in1021.0 mb 0.00 in0.0 mm 0.00 in0.0 mm 0.00 in0.0 mm
02:10 PM 77.3°F25.2°C 54.3°F12.4°C 45% 8.2 mph S13.2 kmh S 13.1 mph21.1 kmh 30.15 in1021.0 mb 0.00 in0.0 mm 0.00 in0.0 mm 0.00 in0.0 mm
02:15 PM 77.1°F25.1°C 53.5°F11.9°C 44% 8.1 mph S13.0 kmh S 13.1 mph21.1 kmh 30.15 in1021.0 mb 0.00 in0.0 mm 0.00 in0.0 mm 0.00 in0.0 mm
02:20 PM 77.1°F25.1°C 53.5°F11.9°C 44% 7.6 mph SSW12.2 kmh SSW 9.8 mph15.8 kmh 30.15 in1021.0 mb 0.00 in0.0 mm 0.00 in0.0 mm 0.00 in0.0 mm
02:25 PM 77.1°F25.1°C 53.5°F11.9°C 44% 5.7 mph SSW9.2 kmh SSW 7.7 mph12.4 kmh 30.15 in1021.0 mb 0.00 in0.0 mm 0.00 in0.0 mm 0.00 in0.0 mm
02:30 PM 77.1°F25.1°C 53.5°F11.9°C 44% 5.1 mph SW8.2 kmh SW 7.1 mph11.4 kmh 30.15 in1021.0 mb 0.00 in0.0 mm 0.00 in0.0 mm 0.00 in0.0 mm
02:35 PM 77.6°F25.3°C 54.0°F12.2°C 44% 4.5 mph SW7.2 kmh SW 6.5 mph10.5 kmh 30.15 in1021.0 mb 0.00 in0.0 mm 0.00 in0.0 mm 0.00 in0.0 mm
02:40 PM 78.2°F25.7°C 53.8°F12.1°C 43% 4.1 mph SW6.6 kmh SW 7.4 mph11.9 kmh 30.15 in1021.0 mb 0.00 in0.0 mm 0.00 in0.0 mm 0.00 in0.0 mm
02:45 PM 78.5°F25.8°C 54.2°F12.3°C 43% 5.0 mph SW8.0 kmh SW 9.2 mph14.8 kmh 30.15 in1021.0 mb 0.00 in0.0 mm 0.00 in0.0 mm 0.00 in0.0 mm
02:50 PM 78.7°F25.9°C 54.3°F12.4°C 43% 5.5 mph SSW8.9 kmh SSW 10.4 mph16.7 kmh 30.15 in1021.0 mb 0.00 in0.0 mm 0.00 in0.0 mm 0.00 in0.0 mm
02:55 PM 78.5°F25.8°C 54.2°F12.3°C 43% 5.6 mph SSW9.0 kmh SSW 10.4 mph16.7 kmh 30.12 in1020.0 mb 0.00 in0.0 mm 0.00 in0.0 mm 0.00 in0.0 mm
03:00 PM 78.3°F25.7°C 54.0°F12.2°C 43% 5.7 mph SSW9.2 kmh SSW 7.7 mph12.4 kmh 30.12 in1020.0 mb 0.00 in0.0 mm 0.00 in0.0 mm 0.00 in0.0 mm
03:05 PM 78.2°F25.7°C 53.2°F11.8°C 42% 6.0 mph SW9.7 kmh SW 8.3 mph13.4 kmh 30.12 in1020.0 mb 0.00 in0.0 mm 0.00 in0.0 mm 0.00 in0.0 mm
03:10 PM 78.0°F25.6°C 53.0°F11.7°C 42% 6.7 mph SSW10.8 kmh SSW 10.4 mph16.7 kmh 30.12 in1020.0 mb 0.00 in0.0 mm 0.00 in0.0 mm 0.00 in0.0 mm
03:15 PM 78.0°F25.6°C 53.0°F11.7°C 42% 6.4 mph S10.3 kmh S 10.4 mph16.7 kmh 30.12 in1020.0 mb 0.00 in0.0 mm 0.00 in0.0 mm 0.00 in0.0 mm
03:20 PM 77.4°F25.2°C 52.6°F11.4°C 42% 4.8 mph S7.7 kmh S 8.9 mph14.3 kmh 30.12 in1020.0 mb 0.00 in0.0 mm 0.00 in0.0 mm 0.00 in0.0 mm
03:25 PM 77.4°F25.2°C 52.6°F11.4°C 42% 5.4 mph S8.7 kmh S 7.7 mph12.4 kmh 30.12 in1020.0 mb 0.00 in0.0 mm 0.00 in0.0 mm 0.00 in0.0 mm
03:30 PM 77.4°F25.2°C 52.6°F11.4°C 42% 6.1 mph S9.8 kmh S 7.7 mph12.4 kmh 30.12 in1020.0 mb 0.00 in0.0 mm 0.00 in0.0 mm 0.00 in0.0 mm
03:35 PM 77.6°F25.3°C 52.7°F11.5°C 42% 6.5 mph SSW10.5 kmh SSW 10.4 mph16.7 kmh 30.12 in1020.0 mb 0.00 in0.0 mm 0.00 in0.0 mm 0.00 in0.0 mm
03:40 PM 77.3°F25.2°C 52.4°F11.3°C 42% 5.7 mph SSW9.2 kmh SSW 10.4 mph16.7 kmh 30.12 in1020.0 mb 0.00 in0.0 mm 0.00 in0.0 mm 0.00 in0.0 mm
03:45 PM 77.4°F25.2°C 52.6°F11.4°C 42% 5.2 mph SSW8.4 kmh SSW 8.3 mph13.4 kmh 30.12 in1020.0 mb 0.00 in0.0 mm 0.00 in0.0 mm 0.00 in0.0 mm
03:50 PM 77.4°F25.2°C 52.6°F11.4°C 42% 4.8 mph SSW7.7 kmh SSW 8.3 mph13.4 kmh 30.12 in1020.0 mb 0.00 in0.0 mm 0.00 in0.0 mm 0.00 in0.0 mm
03:55 PM 77.4°F25.2°C 51.9°F11.1°C 41% 4.6 mph SSW7.4 kmh SSW 7.4 mph11.9 kmh 30.12 in1020.0 mb 0.00 in0.0 mm 0.00 in0.0 mm 0.00 in0.0 mm
04:00 PM 77.3°F25.2°C 51.7°F10.9°C 41% 5.9 mph SSW9.5 kmh SSW 10.1 mph16.3 kmh 30.12 in1020.0 mb 0.00 in0.0 mm 0.00 in0.0 mm 0.00 in0.0 mm
04:05 PM 77.4°F25.2°C 52.6°F11.4°C 42% 5.9 mph SSW9.5 kmh SSW 10.1 mph16.3 kmh 30.12 in1020.0 mb 0.00 in0.0 mm 0.00 in0.0 mm 0.00 in0.0 mm
04:10 PM 77.6°F25.3°C 52.1°F11.2°C 41% 5.1 mph SSW8.2 kmh SSW 7.1 mph11.4 kmh 30.12 in1020.0 mb 0.00 in0.0 mm 0.00 in0.0 mm 0.00 in0.0 mm
04:15 PM 77.4°F25.2°C 51.9°F11.1°C 41% 6.5 mph SW10.5 kmh SW 9.8 mph15.8 kmh 30.12 in1020.0 mb 0.00 in0.0 mm 0.00 in0.0 mm 0.00 in0.0 mm
04:20 PM 76.6°F24.8°C 51.1°F10.6°C 41% 6.3 mph SW10.1 kmh SW 9.8 mph15.8 kmh 30.12 in1020.0 mb 0.00 in0.0 mm 0.00 in0.0 mm 0.00 in0.0 mm
04:25 PM 76.2°F24.6°C 50.8°F10.4°C 41% 4.4 mph SSW7.1 kmh SSW 8.0 mph12.9 kmh 30.12 in1020.0 mb 0.00 in0.0 mm 0.00 in0.0 mm 0.00 in0.0 mm
04:30 PM 75.3°F24.1°C 50.6°F10.3°C 42% 4.7 mph SSW7.6 kmh SSW 8.0 mph12.9 kmh 30.12 in1020.0 mb 0.00 in0.0 mm 0.00 in0.0 mm 0.00 in0.0 mm
04:35 PM 74.8°F23.8°C 50.1°F10.1°C 42% 5.3 mph SSW8.5 kmh SSW 7.1 mph11.4 kmh 30.12 in1020.0 mb 0.00 in0.0 mm 0.00 in0.0 mm 0.00 in0.0 mm
04:40 PM 74.0°F23.3°C 49.5°F9.7°C 42% 5.5 mph SSW8.9 kmh SSW 7.1 mph11.4 kmh 30.12 in1020.0 mb 0.00 in0.0 mm 0.00 in0.0 mm 0.00 in0.0 mm
04:45 PM 73.8°F23.2°C 49.3°F9.6°C 42% 5.4 mph S8.7 kmh S 8.0 mph12.9 kmh 30.12 in1020.0 mb 0.00 in0.0 mm 0.00 in0.0 mm 0.00 in0.0 mm
04:50 PM 73.1°F22.8°C 48.7°F9.3°C 42% 5.2 mph SSW8.4 kmh SSW 8.0 mph12.9 kmh 30.12 in1020.0 mb 0.00 in0.0 mm 0.00 in0.0 mm 0.00 in0.0 mm
04:55 PM 72.6°F22.6°C 48.2°F9.0°C 42% 5.7 mph S9.2 kmh S 11.3 mph18.2 kmh 30.12 in1020.0 mb 0.00 in0.0 mm 0.00 in0.0 mm 0.00 in0.0 mm
05:00 PM 72.1°F22.3°C 48.3°F9.1°C 43% 5.3 mph S8.5 kmh S 11.3 mph18.2 kmh 30.12 in1020.0 mb 0.00 in0.0 mm 0.00 in0.0 mm 0.00 in0.0 mm
05:05 PM 71.7°F22.1°C 48.0°F8.9°C 43% 5.4 mph SSW8.7 kmh SSW 8.6 mph13.8 kmh 30.12 in1020.0 mb 0.00 in0.0 mm 0.00 in0.0 mm 0.00 in0.0 mm
05:10 PM 71.2°F21.8°C 47.5°F8.6°C 43% 6.2 mph SSW10.0 kmh SSW 8.6 mph13.8 kmh 30.12 in1020.0 mb 0.00 in0.0 mm 0.00 in0.0 mm 0.00 in0.0 mm
05:15 PM 71.0°F21.7°C 47.3°F8.5°C 43% 5.8 mph SSW9.3 kmh SSW 8.3 mph13.4 kmh 30.12 in1020.0 mb 0.00 in0.0 mm 0.00 in0.0 mm 0.00 in0.0 mm
05:20 PM 71.0°F21.7°C 47.3°F8.5°C 43% 5.1 mph SSW8.2 kmh SSW 7.7 mph12.4 kmh 30.12 in1020.0 mb 0.00 in0.0 mm 0.00 in0.0 mm 0.00 in0.0 mm
05:25 PM 70.3°F21.3°C 46.7°F8.2°C 43% 4.6 mph SW7.4 kmh SW 8.0 mph12.9 kmh 30.12 in1020.0 mb 0.00 in0.0 mm 0.00 in0.0 mm 0.00 in0.0 mm
05:30 PM 70.1°F21.2°C 46.5°F8.1°C 43% 4.2 mph SW6.8 kmh SW 8.0 mph12.9 kmh 30.12 in1020.0 mb 0.00 in0.0 mm 0.00 in0.0 mm 0.00 in0.0 mm
05:35 PM 69.9°F21.1°C 46.4°F8.0°C 43% 4.0 mph SW6.4 kmh SW 5.7 mph9.2 kmh 30.12 in1020.0 mb 0.00 in0.0 mm 0.00 in0.0 mm 0.00 in0.0 mm
05:40 PM 69.5°F20.8°C 46.0°F7.8°C 43% 5.5 mph SSW8.9 kmh SSW 9.5 mph15.3 kmh 30.12 in1020.0 mb 0.00 in0.0 mm 0.00 in0.0 mm 0.00 in0.0 mm
05:45 PM 69.3°F20.7°C 45.9°F7.7°C 43% 5.7 mph SSW9.2 kmh SSW 9.5 mph15.3 kmh 30.12 in1020.0 mb 0.00 in0.0 mm 0.00 in0.0 mm 0.00 in0.0 mm
05:50 PM 69.0°F20.6°C 45.6°F7.6°C 43% 4.7 mph SSW7.6 kmh SSW 8.0 mph12.9 kmh 30.12 in1020.0 mb 0.00 in0.0 mm 0.00 in0.0 mm 0.00 in0.0 mm
05:55 PM 68.8°F20.4°C 46.0°F7.8°C 44% 4.5 mph SSW7.2 kmh SSW 8.0 mph12.9 kmh 30.12 in1020.0 mb 0.00 in0.0 mm 0.00 in0.0 mm 0.00 in0.0 mm
06:00 PM 68.6°F20.3°C 45.8°F7.7°C 44% 3.0 mph SSW4.8 kmh SSW 5.7 mph9.2 kmh 30.12 in1020.0 mb 0.00 in0.0 mm 0.00 in0.0 mm 0.00 in0.0 mm
06:05 PM 68.3°F20.2°C 45.5°F7.5°C 44% 2.9 mph SW4.7 kmh SW 5.7 mph9.2 kmh 30.12 in1020.0 mb 0.00 in0.0 mm 0.00 in0.0 mm 0.00 in0.0 mm
06:10 PM 68.3°F20.2°C 45.5°F7.5°C 44% 2.7 mph SSW4.3 kmh SSW 4.5 mph7.2 kmh 30.12 in1020.0 mb 0.00 in0.0 mm 0.00 in0.0 mm 0.00 in0.0 mm
06:15 PM 68.1°F20.1°C 45.9°F7.7°C 45% 2.6 mph SSW4.2 kmh SSW 5.1 mph8.2 kmh 30.12 in1020.0 mb 0.00 in0.0 mm 0.00 in0.0 mm 0.00 in0.0 mm
06:20 PM 67.9°F19.9°C 45.8°F7.7°C 45% 3.6 mph SW5.8 kmh SW 8.9 mph14.3 kmh 30.12 in1020.0 mb 0.00 in0.0 mm 0.00 in0.0 mm 0.00 in0.0 mm
06:25 PM 67.6°F19.8°C 45.4°F7.4°C 45% 5.0 mph SSW8.0 kmh SSW 8.9 mph14.3 kmh 30.12 in1020.0 mb 0.00 in0.0 mm 0.00 in0.0 mm 0.00 in0.0 mm
06:30 PM 67.4°F19.7°C 45.3°F7.4°C 45% 5.6 mph SSW9.0 kmh SSW 7.7 mph12.4 kmh 30.12 in1020.0 mb 0.00 in0.0 mm 0.00 in0.0 mm 0.00 in0.0 mm
06:35 PM 67.2°F19.6°C 45.1°F7.3°C 45% 4.7 mph SSW7.6 kmh SSW 7.7 mph12.4 kmh 30.12 in1020.0 mb 0.00 in0.0 mm 0.00 in0.0 mm 0.00 in0.0 mm
06:40 PM 66.8°F19.3°C 44.2°F6.8°C 44% 4.1 mph SSW6.6 kmh SSW 7.1 mph11.4 kmh 30.12 in1020.0 mb 0.00 in0.0 mm 0.00 in0.0 mm 0.00 in0.0 mm
06:45 PM 66.8°F19.3°C 44.2°F6.8°C 44% 4.6 mph SSW7.4 kmh SSW 7.1 mph11.4 kmh 30.12 in1020.0 mb 0.00 in0.0 mm 0.00 in0.0 mm 0.00 in0.0 mm
06:50 PM 66.7°F19.3°C 44.6°F7.0°C 45% 4.2 mph SSW6.8 kmh SSW 6.5 mph10.5 kmh 30.12 in1020.0 mb 0.00 in0.0 mm 0.00 in0.0 mm 0.00 in0.0 mm
06:55 PM 66.5°F19.2°C 44.5°F6.9°C 45% 3.6 mph SSW5.8 kmh SSW 6.2 mph10.0 kmh 30.12 in1020.0 mb 0.00 in0.0 mm 0.00 in0.0 mm 0.00 in0.0 mm
07:00 PM 66.3°F19.1°C 44.3°F6.8°C 45% 3.6 mph S5.8 kmh S 5.1 mph8.2 kmh 30.12 in1020.0 mb 0.00 in0.0 mm 0.00 in0.0 mm 0.00 in0.0 mm
07:05 PM 66.3°F19.1°C 44.3°F6.8°C 45% 3.7 mph SSW6.0 kmh SSW 5.1 mph8.2 kmh 30.12 in1020.0 mb 0.00 in0.0 mm 0.00 in0.0 mm 0.00 in0.0 mm
07:10 PM 65.9°F18.8°C 44.0°F6.7°C 45% 3.8 mph SW6.1 kmh SW 7.1 mph11.4 kmh 30.12 in1020.0 mb 0.00 in0.0 mm 0.00 in0.0 mm 0.00 in0.0 mm
07:15 PM 65.9°F18.8°C 44.0°F6.7°C 45% 3.7 mph SSW6.0 kmh SSW 7.1 mph11.4 kmh 30.12 in1020.0 mb 0.00 in0.0 mm 0.00 in0.0 mm 0.00 in0.0 mm
07:20 PM 65.9°F18.8°C 44.0°F6.7°C 45% 3.3 mph S5.3 kmh S 4.2 mph6.8 kmh 30.12 in1020.0 mb 0.00 in0.0 mm 0.00 in0.0 mm 0.00 in0.0 mm
07:25 PM 65.8°F18.8°C 43.8°F6.6°C 45% 3.9 mph S6.3 kmh S 7.7 mph12.4 kmh 30.12 in1020.0 mb 0.00 in0.0 mm 0.00 in0.0 mm 0.00 in0.0 mm
07:30 PM 65.8°F18.8°C 44.4°F6.9°C 46% 4.5 mph SSW7.2 kmh SSW 7.7 mph12.4 kmh 30.12 in1020.0 mb 0.00 in0.0 mm 0.00 in0.0 mm 0.00 in0.0 mm
07:35 PM 65.6°F18.7°C 44.2°F6.8°C 46% 3.4 mph SW5.5 kmh SW 5.7 mph9.2 kmh 30.12 in1020.0 mb 0.00 in0.0 mm 0.00 in0.0 mm 0.00 in0.0 mm
07:40 PM 65.6°F18.7°C 44.2°F6.8°C 46% 3.1 mph SSW5.0 kmh SSW 4.8 mph7.7 kmh 30.12 in1020.0 mb 0.00 in0.0 mm 0.00 in0.0 mm 0.00 in0.0 mm
07:45 PM 65.4°F18.6°C 44.1°F6.7°C 46% 3.4 mph SSW5.5 kmh SSW 4.8 mph7.7 kmh 30.12 in1020.0 mb 0.00 in0.0 mm 0.00 in0.0 mm 0.00 in0.0 mm
07:50 PM 65.2°F18.4°C 43.9°F6.6°C 46% 2.9 mph SW4.7 kmh SW 6.5 mph10.5 kmh 30.12 in1020.0 mb 0.00 in0.0 mm 0.00 in0.0 mm 0.00 in0.0 mm
07:55 PM 65.2°F18.4°C 43.9°F6.6°C 46% 3.5 mph SSW5.6 kmh SSW 6.5 mph10.5 kmh 30.12 in1020.0 mb 0.00 in0.0 mm 0.00 in0.0 mm 0.00 in0.0 mm
08:00 PM 65.0°F18.3°C 43.7°F6.5°C 46% 3.7 mph SSW6.0 kmh SSW 5.7 mph9.2 kmh 30.12 in1020.0 mb 0.00 in0.0 mm 0.00 in0.0 mm 0.00 in0.0 mm
08:05 PM 65.0°F18.3°C 43.7°F6.5°C 46% 2.2 mph SSW3.5 kmh SSW 5.1 mph8.2 kmh 30.12 in1020.0 mb 0.00 in0.0 mm 0.00 in0.0 mm 0.00 in0.0 mm
08:10 PM 64.8°F18.2°C 44.1°F6.7°C 47% 0.9 mph SW1.4 kmh SW 3.0 mph4.8 kmh 30.12 in1020.0 mb 0.00 in0.0 mm 0.00 in0.0 mm 0.00 in0.0 mm
08:15 PM 64.8°F18.2°C 44.1°F6.7°C 47% 1.3 mph SSW2.1 kmh SSW 4.2 mph6.8 kmh 30.12 in1020.0 mb 0.00 in0.0 mm 0.00 in0.0 mm 0.00 in0.0 mm
08:20 PM 64.7°F18.2°C 44.0°F6.7°C 47% 2.2 mph SSW3.5 kmh SSW 4.2 mph6.8 kmh 30.12 in1020.0 mb 0.00 in0.0 mm 0.00 in0.0 mm 0.00 in0.0 mm
08:25 PM 64.7°F18.2°C 44.0°F6.7°C 47% 3.1 mph S5.0 kmh S 5.1 mph8.2 kmh 30.12 in1020.0 mb 0.00 in0.0 mm 0.00 in0.0 mm 0.00 in0.0 mm
08:30 PM 64.5°F18.1°C 43.8°F6.6°C 47% 3.3 mph S5.3 kmh S 5.1 mph8.2 kmh 30.12 in1020.0 mb 0.00 in0.0 mm 0.00 in0.0 mm 0.00 in0.0 mm
08:35 PM 64.5°F18.1°C 43.8°F6.6°C 47% 2.4 mph S3.9 kmh S 3.6 mph5.8 kmh 30.12 in1020.0 mb 0.00 in0.0 mm 0.00 in0.0 mm 0.00 in0.0 mm
08:40 PM 64.5°F18.1°C 43.8°F6.6°C 47% 2.6 mph SW4.2 kmh SW 4.2 mph6.8 kmh 30.12 in1020.0 mb 0.00 in0.0 mm 0.00 in0.0 mm 0.00 in0.0 mm
08:45 PM 64.5°F18.1°C 44.4°F6.9°C 48% 2.6 mph SW4.2 kmh SW 4.2 mph6.8 kmh 30.12 in1020.0 mb 0.00 in0.0 mm 0.00 in0.0 mm 0.00 in0.0 mm
08:50 PM 64.3°F17.9°C 44.2°F6.8°C 48% 2.3 mph SW3.7 kmh SW 3.9 mph6.3 kmh 30.12 in1020.0 mb 0.00 in0.0 mm 0.00 in0.0 mm 0.00 in0.0 mm
08:55 PM 64.3°F17.9°C 44.2°F6.8°C 48% 2.6 mph SW4.2 kmh SW 4.8 mph7.7 kmh 30.12 in1020.0 mb 0.00 in0.0 mm 0.00 in0.0 mm 0.00 in0.0 mm
09:00 PM 64.3°F17.9°C 44.2°F6.8°C 48% 2.4 mph SW3.9 kmh SW 4.8 mph7.7 kmh 30.12 in1020.0 mb 0.00 in0.0 mm 0.00 in0.0 mm 0.00 in0.0 mm
09:05 PM 64.3°F17.9°C 44.2°F6.8°C 48% 2.0 mph SSW3.2 kmh SSW 3.6 mph5.8 kmh 30.12 in1020.0 mb 0.00 in0.0 mm 0.00 in0.0 mm 0.00 in0.0 mm
09:10 PM 64.3°F17.9°C 44.2°F6.8°C 48% 1.8 mph SSW2.9 kmh SSW 3.6 mph5.8 kmh 30.12 in1020.0 mb 0.00 in0.0 mm 0.00 in0.0 mm 0.00 in0.0 mm
09:15 PM 64.1°F17.8°C 44.0°F6.7°C 48% 1.2 mph SW1.9 kmh SW 3.6 mph5.8 kmh 30.12 in1020.0 mb 0.00 in0.0 mm 0.00 in0.0 mm 0.00 in0.0 mm
09:20 PM 64.1°F17.8°C 44.0°F6.7°C 48% 1.0 mph SSW1.6 kmh SSW 3.6 mph5.8 kmh 30.12 in1020.0 mb 0.00 in0.0 mm 0.00 in0.0 mm 0.00 in0.0 mm
09:25 PM 64.1°F17.8°C 44.6°F7.0°C 49% 1.6 mph WSW2.6 kmh WSW 3.3 mph5.3 kmh 30.12 in1020.0 mb 0.00 in0.0 mm 0.00 in0.0 mm 0.00 in0.0 mm
09:30 PM 64.1°F17.8°C 44.6°F7.0°C 49% 1.5 mph WSW2.4 kmh WSW 3.3 mph5.3 kmh 30.12 in1020.0 mb 0.00 in0.0 mm 0.00 in0.0 mm 0.00 in0.0 mm
09:35 PM 64.0°F17.8°C 44.4°F6.9°C 49% 0.8 mph NW1.3 kmh NW 1.8 mph2.9 kmh 30.12 in1020.0 mb 0.00 in0.0 mm 0.00 in0.0 mm 0.00 in0.0 mm
09:40 PM 64.0°F17.8°C 44.4°F6.9°C 49% 1.6 mph S2.6 kmh S 4.5 mph7.2 kmh 30.12 in1020.0 mb 0.00 in0.0 mm 0.00 in0.0 mm 0.00 in0.0 mm
09:45 PM 63.8°F17.7°C 44.2°F6.8°C 49% 2.2 mph S3.5 kmh S 4.8 mph7.7 kmh 30.12 in1020.0 mb 0.00 in0.0 mm 0.00 in0.0 mm 0.00 in0.0 mm
09:50 PM 63.8°F17.7°C 44.2°F6.8°C 49% 2.3 mph S3.7 kmh S 4.8 mph7.7 kmh 30.12 in1020.0 mb 0.00 in0.0 mm 0.00 in0.0 mm 0.00 in0.0 mm
09:55 PM 63.8°F17.7°C 44.2°F6.8°C 49% 2.1 mph S3.4 kmh S 3.9 mph6.3 kmh 30.12 in1020.0 mb 0.00 in0.0 mm 0.00 in0.0 mm 0.00 in0.0 mm
10:00 PM 63.6°F17.6°C 44.1°F6.7°C 49% 1.8 mph SSW2.9 kmh SSW 3.6 mph5.8 kmh 30.12 in1020.0 mb 0.00 in0.0 mm 0.00 in0.0 mm 0.00 in0.0 mm
10:05 PM 63.6°F17.6°C 44.1°F6.7°C 49% 2.0 mph SSW3.2 kmh SSW 3.6 mph5.8 kmh 30.12 in1020.0 mb 0.00 in0.0 mm 0.00 in0.0 mm 0.00 in0.0 mm
10:10 PM 63.6°F17.6°C 44.1°F6.7°C 49% 1.3 mph SSW2.1 kmh SSW 3.3 mph5.3 kmh 30.12 in1020.0 mb 0.00 in0.0 mm 0.00 in0.0 mm 0.00 in0.0 mm
10:15 PM 63.4°F17.4°C 43.9°F6.6°C 49% 0.3 mph S0.5 kmh S 1.8 mph2.9 kmh 30.12 in1020.0 mb 0.00 in0.0 mm 0.00 in0.0 mm 0.00 in0.0 mm
10:20 PM 63.4°F17.4°C 43.9°F6.6°C 49% 0.1 mph S0.2 kmh S 1.5 mph2.4 kmh 30.12 in1020.0 mb 0.00 in0.0 mm 0.00 in0.0 mm 0.00 in0.0 mm
10:25 PM 63.2°F17.3°C 43.7°F6.5°C 49% 0.4 mph S0.6 kmh S 1.8 mph2.9 kmh 30.12 in1020.0 mb 0.00 in0.0 mm 0.00 in0.0 mm 0.00 in0.0 mm
10:30 PM 63.2°F17.3°C 43.7°F6.5°C 49% 1.3 mph SW2.1 kmh SW 4.5 mph7.2 kmh 30.12 in1020.0 mb 0.00 in0.0 mm 0.00 in0.0 mm 0.00 in0.0 mm
10:35 PM 63.2°F17.3°C 43.7°F6.5°C 49% 1.3 mph WSW2.1 kmh WSW 4.5 mph7.2 kmh 30.12 in1020.0 mb 0.00 in0.0 mm 0.00 in0.0 mm 0.00 in0.0 mm
10:40 PM 63.2°F17.3°C 43.7°F6.5°C 49% 1.0 mph WSW1.6 kmh WSW 3.6 mph5.8 kmh 30.12 in1020.0 mb 0.00 in0.0 mm 0.00 in0.0 mm 0.00 in0.0 mm
10:45 PM 63.2°F17.3°C 43.7°F6.5°C 49% 1.2 mph WSW1.9 kmh WSW 3.6 mph5.8 kmh 30.12 in1020.0 mb 0.00 in0.0 mm 0.00 in0.0 mm 0.00 in0.0 mm
10:50 PM 63.0°F17.2°C 44.1°F6.7°C 50% 1.3 mph WSW2.1 kmh WSW 2.7 mph4.3 kmh 30.12 in1020.0 mb 0.00 in0.0 mm 0.00 in0.0 mm 0.00 in0.0 mm
10:55 PM 63.0°F17.2°C 44.1°F6.7°C 50% 1.0 mph W1.6 kmh W 2.7 mph4.3 kmh 30.12 in1020.0 mb 0.00 in0.0 mm 0.00 in0.0 mm 0.00 in0.0 mm
11:00 PM 63.0°F17.2°C 44.1°F6.7°C 50% 0.4 mph WSW0.6 kmh WSW 1.8 mph2.9 kmh 30.12 in1020.0 mb 0.00 in0.0 mm 0.00 in0.0 mm 0.00 in0.0 mm
11:05 PM 62.7°F17.1°C 43.8°F6.6°C 50% 0.4 mph SW0.6 kmh SW 2.1 mph3.4 kmh 30.12 in1020.0 mb 0.00 in0.0 mm 0.00 in0.0 mm 0.00 in0.0 mm
11:10 PM 62.7°F17.1°C 43.8°F6.6°C 50% 0.3 mph SW0.5 kmh SW 2.1 mph3.4 kmh 30.12 in1020.0 mb 0.00 in0.0 mm 0.00 in0.0 mm 0.00 in0.0 mm
11:15 PM 62.5°F16.9°C 43.6°F6.4°C 50% 0.7 mph W1.1 kmh W 2.7 mph4.3 kmh 30.12 in1020.0 mb 0.00 in0.0 mm 0.00 in0.0 mm 0.00 in0.0 mm
11:20 PM 62.3°F16.8°C 44.0°F6.7°C 51% 0.7 mph W1.1 kmh W 2.7 mph4.3 kmh 30.12 in1020.0 mb 0.00 in0.0 mm 0.00 in0.0 mm 0.00 in0.0 mm
11:25 PM 62.3°F16.8°C 44.0°F6.7°C 51% 0.4 mph W0.6 kmh W 2.7 mph4.3 kmh 30.12 in1020.0 mb 0.00 in0.0 mm 0.00 in0.0 mm 0.00 in0.0 mm
11:30 PM 62.0°F16.7°C 43.6°F6.4°C 51% 0.9 mph WSW1.4 kmh WSW 2.7 mph4.3 kmh 30.12 in1020.0 mb 0.00 in0.0 mm 0.00 in0.0 mm 0.00 in0.0 mm
11:35 PM 62.0°F16.7°C 43.6°F6.4°C 51% 0.9 mph WSW1.4 kmh WSW 2.7 mph4.3 kmh 30.12 in1020.0 mb 0.00 in0.0 mm 0.00 in0.0 mm 0.00 in0.0 mm
11:40 PM 61.8°F16.6°C 43.5°F6.4°C 51% 0.3 mph WSW0.5 kmh WSW 1.8 mph2.9 kmh 30.12 in1020.0 mb 0.00 in0.0 mm 0.00 in0.0 mm 0.00 in0.0 mm
11:45 PM 61.8°F16.6°C 43.5°F6.4°C 51% 0.1 mph WSW0.2 kmh WSW 1.8 mph2.9 kmh 30.12 in1020.0 mb 0.00 in0.0 mm 0.00 in0.0 mm 0.00 in0.0 mm
11:50 PM 61.6°F16.4°C 43.3°F6.3°C 51% Calm Calm -- 30.12 in1020.0 mb 0.00 in0.0 mm 0.00 in0.0 mm 0.00 in0.0 mm
11:55 PM 61.6°F16.4°C 43.3°F6.3°C 51% Calm Calm -- 30.12 in1020.0 mb 0.00 in0.0 mm 0.00 in0.0 mm 0.00 in0.0 mm